Terminal Aerodrome Forecast
Issued by NWS

Home | Current Version | Previous Version | Text Only | Print | Product List | Glossary Off
Versions: 1 2 3 4 5 6 7 8 9 10 11 12 13 14 15 16 17 18 19 20 21

000
FTUS41 KGYX 171153 AAA
TAFRKD
TAF AMD
KRKD 171153Z 1712/1812 05007KT 1 1/2SM -SN OVC009
     FM171600 04008KT 1/2SM SN VV003
     FM172300 36003KT 1 1/2SM -SN BR OVC003
     FM180700 33004KT P6SM SKC
      AMD NOT SKED=

USA.gov is the U.S. government's official web portal to all federal, state and local government web resources and services.